sensor_id;sensor_type;location;lat;lon;timestamp;P1;durP1;ratioP1;P2;durP2;ratioP2
67352;SDS011;54238;52.278;21.056;2023-08-20T00:01:45;24.10;;;19.20;;
67352;SDS011;54238;52.278;21.056;2023-08-20T00:04:15;22.80;;;18.70;;
67352;SDS011;54238;52.278;21.056;2023-08-20T00:06:47;22.20;;;19.50;;
67352;SDS011;54238;52.278;21.056;2023-08-20T00:09:20;19.70;;;17.80;;
67352;SDS011;54238;52.278;21.056;2023-08-20T00:11:49;20.80;;;17.70;;
67352;SDS011;54238;52.278;21.056;2023-08-20T00:14:19;21.20;;;18.80;;
67352;SDS011;54238;52.278;21.056;2023-08-20T00:17:09;25.40;;;19.10;;
67352;SDS011;54238;52.278;21.056;2023-08-20T00:19:42;25.50;;;19.40;;
67352;SDS011;54238;52.278;21.056;2023-08-20T00:22:10;22.20;;;19.30;;
67352;SDS011;54238;52.278;21.056;2023-08-20T00:24:42;25.60;;;17.70;;
67352;SDS011;54238;52.278;21.056;2023-08-20T00:27:12;21.20;;;16.40;;
67352;SDS011;54238;52.278;21.056;2023-08-20T00:29:44;20.90;;;18.60;;
67352;SDS011;54238;52.278;21.056;2023-08-20T00:32:14;22.00;;;18.80;;
67352;SDS011;54238;52.278;21.056;2023-08-20T00:34:44;20.60;;;18.30;;
67352;SDS011;54238;52.278;21.056;2023-08-20T00:37:11;25.90;;;18.40;;
67352;SDS011;54238;52.278;21.056;2023-08-20T00:39:41;21.90;;;19.00;;
67352;SDS011;54238;52.278;21.056;2023-08-20T00:42:14;22.10;;;18.70;;
67352;SDS011;54238;52.278;21.056;2023-08-20T00:44:42;21.70;;;18.10;;
67352;SDS011;54238;52.278;21.056;2023-08-20T00:47:16;20.60;;;18.20;;
67352;SDS011;54238;52.278;21.056;2023-08-20T00:49:50;20.10;;;18.10;;
67352;SDS011;54238;52.278;21.056;2023-08-20T00:52:25;22.40;;;18.70;;
67352;SDS011;54238;52.278;21.056;2023-08-20T00:54:54;24.30;;;18.40;;
67352;SDS011;54238;52.278;21.056;2023-08-20T00:57:26;21.30;;;18.50;;
67352;SDS011;54238;52.278;21.056;2023-08-20T00:59:54;20.30;;;18.00;;
67352;SDS011;54238;52.278;21.056;2023-08-20T01:02:22;20.40;;;18.40;;
67352;SDS011;54238;52.278;21.056;2023-08-20T01:04:52;22.70;;;18.50;;
67352;SDS011;54238;52.278;21.056;2023-08-20T01:07:49;24.80;;;18.40;;
67352;SDS011;54238;52.278;21.056;2023-08-20T01:10:34;24.70;;;18.20;;
67352;SDS011;54238;52.278;21.056;2023-08-20T01:13:11;22.30;;;19.10;;
67352;SDS011;54238;52.278;21.056;2023-08-20T01:15:40;20.30;;;18.10;;
67352;SDS011;54238;52.278;21.056;2023-08-20T01:18:07;21.10;;;17.80;;
67352;SDS011;54238;52.278;21.056;2023-08-20T01:20:45;21.80;;;18.30;;
67352;SDS011;54238;52.278;21.056;2023-08-20T01:29:04;24.90;;;18.30;;
67352;SDS011;54238;52.278;21.056;2023-08-20T01:31:33;23.10;;;18.10;;
67352;SDS011;54238;52.278;21.056;2023-08-20T01:34:02;25.30;;;18.90;;
67352;SDS011;54238;52.278;21.056;2023-08-20T01:36:30;20.30;;;18.20;;
67352;SDS011;54238;52.278;21.056;2023-08-20T01:39:00;20.50;;;18.20;;
67352;SDS011;54238;52.278;21.056;2023-08-20T01:41:31;20.30;;;17.70;;
67352;SDS011;54238;52.278;21.056;2023-08-20T01:43:58;19.90;;;17.80;;
67352;SDS011;54238;52.278;21.056;2023-08-20T01:46:30;21.60;;;19.00;;
67352;SDS011;54238;52.278;21.056;2023-08-20T01:48:59;25.70;;;20.20;;
67352;SDS011;54238;52.278;21.056;2023-08-20T01:51:28;23.40;;;20.10;;
67352;SDS011;54238;52.278;21.056;2023-08-20T01:53:55;20.80;;;18.60;;
67352;SDS011;54238;52.278;21.056;2023-08-20T01:56:24;21.40;;;19.10;;
67352;SDS011;54238;52.278;21.056;2023-08-20T01:58:54;23.50;;;19.90;;
67352;SDS011;54238;52.278;21.056;2023-08-20T02:01:21;23.00;;;20.70;;
67352;SDS011;54238;52.278;21.056;2023-08-20T02:03:48;21.50;;;19.20;;
67352;SDS011;54238;52.278;21.056;2023-08-20T02:06:20;26.90;;;21.70;;
67352;SDS011;54238;52.278;21.056;2023-08-20T02:08:49;23.30;;;20.90;;
67352;SDS011;54238;52.278;21.056;2023-08-20T02:11:22;25.40;;;21.00;;
67352;SDS011;54238;52.278;21.056;2023-08-20T02:13:51;22.30;;;20.10;;
67352;SDS011;54238;52.278;21.056;2023-08-20T02:16:22;23.50;;;21.30;;
67352;SDS011;54238;52.278;21.056;2023-08-20T02:18:52;22.10;;;19.90;;
67352;SDS011;54238;52.278;21.056;2023-08-20T02:21:22;22.60;;;19.90;;
67352;SDS011;54238;52.278;21.056;2023-08-20T02:23:51;25.90;;;19.80;;
67352;SDS011;54238;52.278;21.056;2023-08-20T02:26:21;21.80;;;19.50;;
67352;SDS011;54238;52.278;21.056;2023-08-20T02:28:48;22.20;;;19.70;;
67352;SDS011;54238;52.278;21.056;2023-08-20T02:31:15;24.20;;;19.50;;
67352;SDS011;54238;52.278;21.056;2023-08-20T02:33:47;22.40;;;19.90;;
67352;SDS011;54238;52.278;21.056;2023-08-20T02:36:15;21.60;;;19.20;;
67352;SDS011;54238;52.278;21.056;2023-08-20T02:38:44;21.20;;;19.10;;
67352;SDS011;54238;52.278;21.056;2023-08-20T02:43:46;22.30;;;18.70;;
67352;SDS011;54238;52.278;21.056;2023-08-20T02:46:18;24.10;;;19.80;;
67352;SDS011;54238;52.278;21.056;2023-08-20T02:48:45;23.40;;;20.70;;
67352;SDS011;54238;52.278;21.056;2023-08-20T02:51:17;22.20;;;19.50;;
67352;SDS011;54238;52.278;21.056;2023-08-20T02:53:47;23.20;;;20.80;;
67352;SDS011;54238;52.278;21.056;2023-08-20T02:56:16;22.80;;;20.70;;
67352;SDS011;54238;52.278;21.056;2023-08-20T02:58:43;22.50;;;18.90;;
67352;SDS011;54238;52.278;21.056;2023-08-20T03:01:24;23.80;;;19.80;;
67352;SDS011;54238;52.278;21.056;2023-08-20T03:03:55;22.50;;;20.10;;
67352;SDS011;54238;52.278;21.056;2023-08-20T03:06:24;22.00;;;19.70;;
67352;SDS011;54238;52.278;21.056;2023-08-20T03:08:54;22.80;;;19.80;;
67352;SDS011;54238;52.278;21.056;2023-08-20T03:11:21;23.50;;;19.40;;
67352;SDS011;54238;52.278;21.056;2023-08-20T03:13:53;22.00;;;19.70;;
67352;SDS011;54238;52.278;21.056;2023-08-20T03:16:26;21.50;;;19.30;;
67352;SDS011;54238;52.278;21.056;2023-08-20T03:18:55;22.40;;;19.70;;
67352;SDS011;54238;52.278;21.056;2023-08-20T03:21:28;21.80;;;19.50;;
67352;SDS011;54238;52.278;21.056;2023-08-20T03:23:56;21.80;;;19.60;;
67352;SDS011;54238;52.278;21.056;2023-08-20T03:26:28;22.40;;;20.20;;
67352;SDS011;54238;52.278;21.056;2023-08-20T03:28:57;22.20;;;19.50;;
67352;SDS011;54238;52.278;21.056;2023-08-20T03:31:25;23.50;;;19.60;;
67352;SDS011;54238;52.278;21.056;2023-08-20T03:33:55;24.30;;;20.50;;
67352;SDS011;54238;52.278;21.056;2023-08-20T03:36:28;23.00;;;19.60;;
67352;SDS011;54238;52.278;21.056;2023-08-20T03:38:58;22.30;;;19.80;;
67352;SDS011;54238;52.278;21.056;2023-08-20T03:41:28;21.40;;;19.10;;
67352;SDS011;54238;52.278;21.056;2023-08-20T03:44:02;22.40;;;19.90;;
67352;SDS011;54238;52.278;21.056;2023-08-20T03:49:03;22.10;;;19.80;;
67352;SDS011;54238;52.278;21.056;2023-08-20T03:51:41;21.50;;;19.20;;
67352;SDS011;54238;52.278;21.056;2023-08-20T03:54:10;24.60;;;20.50;;
67352;SDS011;54238;52.278;21.056;2023-08-20T03:56:39;21.90;;;19.60;;
67352;SDS011;54238;52.278;21.056;2023-08-20T03:59:12;23.40;;;21.00;;
67352;SDS011;54238;52.278;21.056;2023-08-20T04:01:39;23.60;;;20.40;;
67352;SDS011;54238;52.278;21.056;2023-08-20T04:04:09;22.70;;;19.70;;
67352;SDS011;54238;52.278;21.056;2023-08-20T04:06:38;22.00;;;19.40;;
67352;SDS011;54238;52.278;21.056;2023-08-20T04:09:07;25.10;;;20.10;;
67352;SDS011;54238;52.278;21.056;2023-08-20T04:11:35;22.90;;;19.30;;
67352;SDS011;54238;52.278;21.056;2023-08-20T04:14:03;23.10;;;20.60;;
67352;SDS011;54238;52.278;21.056;2023-08-20T04:16:33;25.10;;;20.40;;
67352;SDS011;54238;52.278;21.056;2023-08-20T04:19:00;22.10;;;19.80;;
67352;SDS011;54238;52.278;21.056;2023-08-20T04:21:27;24.20;;;20.20;;
67352;SDS011;54238;52.278;21.056;2023-08-20T04:23:56;21.50;;;19.20;;
67352;SDS011;54238;52.278;21.056;2023-08-20T04:26:31;21.90;;;19.50;;
67352;SDS011;54238;52.278;21.056;2023-08-20T04:29:03;23.00;;;20.70;;
67352;SDS011;54238;52.278;21.056;2023-08-20T04:31:32;22.70;;;19.30;;
67352;SDS011;54238;52.278;21.056;2023-08-20T04:34:01;22.30;;;19.30;;
67352;SDS011;54238;52.278;21.056;2023-08-20T04:36:33;22.90;;;19.90;;
67352;SDS011;54238;52.278;21.056;2023-08-20T04:39:05;23.60;;;20.70;;
67352;SDS011;54238;52.278;21.056;2023-08-20T04:41:35;21.20;;;18.90;;
67352;SDS011;54238;52.278;21.056;2023-08-20T04:44:07;22.00;;;19.90;;
67352;SDS011;54238;52.278;21.056;2023-08-20T04:46:36;21.50;;;19.20;;
67352;SDS011;54238;52.278;21.056;2023-08-20T04:49:05;20.70;;;18.00;;
67352;SDS011;54238;52.278;21.056;2023-08-20T04:51:37;22.30;;;19.00;;
67352;SDS011;54238;52.278;21.056;2023-08-20T04:54:09;22.20;;;18.40;;
67352;SDS011;54238;52.278;21.056;2023-08-20T04:56:41;21.00;;;18.90;;
67352;SDS011;54238;52.278;21.056;2023-08-20T04:59:12;22.70;;;19.50;;
67352;SDS011;54238;52.278;21.056;2023-08-20T05:01:42;22.00;;;19.70;;
67352;SDS011;54238;52.278;21.056;2023-08-20T05:04:14;23.00;;;20.30;;
67352;SDS011;54238;52.278;21.056;2023-08-20T05:06:41;22.30;;;18.90;;
67352;SDS011;54238;52.278;21.056;2023-08-20T05:09:11;22.20;;;19.60;;
67352;SDS011;54238;52.278;21.056;2023-08-20T05:11:42;22.40;;;19.90;;
67352;SDS011;54238;52.278;21.056;2023-08-20T05:14:11;20.70;;;18.60;;
67352;SDS011;54238;52.278;21.056;2023-08-20T05:16:43;22.10;;;19.60;;
67352;SDS011;54238;52.278;21.056;2023-08-20T05:19:17;20.90;;;18.80;;
67352;SDS011;54238;52.278;21.056;2023-08-20T05:21:47;23.60;;;21.30;;
67352;SDS011;54238;52.278;21.056;2023-08-20T05:24:16;26.50;;;20.90;;
67352;SDS011;54238;52.278;21.056;2023-08-20T05:26:43;22.70;;;20.30;;
67352;SDS011;54238;52.278;21.056;2023-08-20T05:29:12;22.90;;;19.80;;
67352;SDS011;54238;52.278;21.056;2023-08-20T05:31:41;23.40;;;21.00;;
67352;SDS011;54238;52.278;21.056;2023-08-20T05:34:11;22.60;;;20.30;;
67352;SDS011;54238;52.278;21.056;2023-08-20T05:36:40;23.30;;;21.00;;
67352;SDS011;54238;52.278;21.056;2023-08-20T05:39:10;22.70;;;20.40;;
67352;SDS011;54238;52.278;21.056;2023-08-20T05:41:37;22.90;;;20.50;;
67352;SDS011;54238;52.278;21.056;2023-08-20T05:44:04;27.70;;;20.60;;
67352;SDS011;54238;52.278;21.056;2023-08-20T05:46:31;22.10;;;19.80;;
67352;SDS011;54238;52.278;21.056;2023-08-20T05:49:01;25.10;;;20.00;;
67352;SDS011;54238;52.278;21.056;2023-08-20T05:51:30;21.90;;;19.60;;
67352;SDS011;54238;52.278;21.056;2023-08-20T05:54:03;23.50;;;19.20;;
67352;SDS011;54238;52.278;21.056;2023-08-20T05:56:31;20.20;;;18.10;;
67352;SDS011;54238;52.278;21.056;2023-08-20T05:58:59;21.70;;;19.50;;
67352;SDS011;54238;52.278;21.056;2023-08-20T06:01:28;21.40;;;19.30;;
67352;SDS011;54238;52.278;21.056;2023-08-20T06:04:00;21.90;;;19.10;;
67352;SDS011;54238;52.278;21.056;2023-08-20T06:06:30;22.30;;;18.60;;
67352;SDS011;54238;52.278;21.056;2023-08-20T06:08:57;22.70;;;18.70;;
67352;SDS011;54238;52.278;21.056;2023-08-20T06:11:27;22.60;;;19.70;;
67352;SDS011;54238;52.278;21.056;2023-08-20T06:13:57;21.60;;;19.40;;
67352;SDS011;54238;52.278;21.056;2023-08-20T06:16:24;22.20;;;19.80;;
67352;SDS011;54238;52.278;21.056;2023-08-20T06:18:57;21.30;;;19.20;;
67352;SDS011;54238;52.278;21.056;2023-08-20T06:24:02;22.60;;;18.10;;
67352;SDS011;54238;52.278;21.056;2023-08-20T06:26:35;20.80;;;18.30;;
67352;SDS011;54238;52.278;21.056;2023-08-20T06:29:05;19.90;;;17.80;;
67352;SDS011;54238;52.278;21.056;2023-08-20T06:31:34;25.70;;;17.90;;
67352;SDS011;54238;52.278;21.056;2023-08-20T06:34:05;28.80;;;18.40;;
67352;SDS011;54238;52.278;21.056;2023-08-20T06:36:37;20.10;;;17.50;;
67352;SDS011;54238;52.278;21.056;2023-08-20T06:39:07;20.70;;;17.10;;
67352;SDS011;54238;52.278;21.056;2023-08-20T06:41:41;22.70;;;16.50;;
67352;SDS011;54238;52.278;21.056;2023-08-20T06:44:11;19.50;;;17.40;;
67352;SDS011;54238;52.278;21.056;2023-08-20T06:46:38;18.90;;;16.90;;
67352;SDS011;54238;52.278;21.056;2023-08-20T06:49:07;20.30;;;17.20;;
67352;SDS011;54238;52.278;21.056;2023-08-20T06:51:37;18.50;;;16.60;;
67352;SDS011;54238;52.278;21.056;2023-08-20T06:54:06;18.90;;;16.90;;
67352;SDS011;54238;52.278;21.056;2023-08-20T06:56:39;19.20;;;14.80;;
67352;SDS011;54238;52.278;21.056;2023-08-20T06:59:06;18.50;;;16.00;;
67352;SDS011;54238;52.278;21.056;2023-08-20T07:01:39;17.20;;;15.50;;
67352;SDS011;54238;52.278;21.056;2023-08-20T07:04:09;19.30;;;15.70;;
67352;SDS011;54238;52.278;21.056;2023-08-20T07:06:39;19.70;;;15.30;;
67352;SDS011;54238;52.278;21.056;2023-08-20T07:09:11;15.60;;;14.00;;
67352;SDS011;54238;52.278;21.056;2023-08-20T07:11:38;17.10;;;15.20;;
67352;SDS011;54238;52.278;21.056;2023-08-20T07:14:08;17.10;;;15.30;;
67352;SDS011;54238;52.278;21.056;2023-08-20T07:16:37;18.40;;;16.50;;
67352;SDS011;54238;52.278;21.056;2023-08-20T07:19:04;16.10;;;14.40;;
67352;SDS011;54238;52.278;21.056;2023-08-20T07:21:32;16.00;;;14.30;;
67352;SDS011;54238;52.278;21.056;2023-08-20T07:24:04;18.60;;;16.40;;
67352;SDS011;54238;52.278;21.056;2023-08-20T07:26:32;16.00;;;14.40;;
67352;SDS011;54238;52.278;21.056;2023-08-20T07:28:59;14.70;;;12.10;;
67352;SDS011;54238;52.278;21.056;2023-08-20T07:31:31;14.10;;;12.70;;
67352;SDS011;54238;52.278;21.056;2023-08-20T07:34:03;14.10;;;12.50;;
67352;SDS011;54238;52.278;21.056;2023-08-20T07:36:31;15.40;;;13.40;;
67352;SDS011;54238;52.278;21.056;2023-08-20T07:39:00;18.20;;;13.70;;
67352;SDS011;54238;52.278;21.056;2023-08-20T07:41:32;16.70;;;13.40;;
67352;SDS011;54238;52.278;21.056;2023-08-20T07:44:02;17.70;;;14.10;;
67352;SDS011;54238;52.278;21.056;2023-08-20T07:46:29;17.30;;;15.50;;
67352;SDS011;54238;52.278;21.056;2023-08-20T07:49:01;16.60;;;14.60;;
67352;SDS011;54238;52.278;21.056;2023-08-20T07:51:30;15.50;;;13.20;;
67352;SDS011;54238;52.278;21.056;2023-08-20T07:53:59;13.50;;;12.20;;
67352;SDS011;54238;52.278;21.056;2023-08-20T07:56:30;14.10;;;12.60;;
67352;SDS011;54238;52.278;21.056;2023-08-20T07:58:57;15.60;;;12.50;;
67352;SDS011;54238;52.278;21.056;2023-08-20T08:01:25;14.10;;;12.20;;
67352;SDS011;54238;52.278;21.056;2023-08-20T08:03:52;14.70;;;13.00;;
67352;SDS011;54238;52.278;21.056;2023-08-20T08:06:19;14.60;;;12.30;;
67352;SDS011;54238;52.278;21.056;2023-08-20T08:08:48;15.40;;;12.90;;
67352;SDS011;54238;52.278;21.056;2023-08-20T08:11:18;14.10;;;12.60;;
67352;SDS011;54238;52.278;21.056;2023-08-20T08:13:53;14.00;;;12.50;;
67352;SDS011;54238;52.278;21.056;2023-08-20T08:16:20;19.10;;;11.90;;
67352;SDS011;54238;52.278;21.056;2023-08-20T08:18:50;13.90;;;12.50;;
67352;SDS011;54238;52.278;21.056;2023-08-20T08:21:25;13.20;;;11.90;;
67352;SDS011;54238;52.278;21.056;2023-08-20T08:23:57;12.50;;;10.70;;
67352;SDS011;54238;52.278;21.056;2023-08-20T08:26:28;15.20;;;12.20;;
67352;SDS011;54238;52.278;21.056;2023-08-20T08:29:06;12.20;;;10.40;;
67352;SDS011;54238;52.278;21.056;2023-08-20T08:31:35;13.50;;;11.40;;
67352;SDS011;54238;52.278;21.056;2023-08-20T08:34:02;12.10;;;10.80;;
67352;SDS011;54238;52.278;21.056;2023-08-20T08:36:33;12.10;;;10.40;;
67352;SDS011;54238;52.278;21.056;2023-08-20T08:39:03;12.90;;;10.30;;
67352;SDS011;54238;52.278;21.056;2023-08-20T08:41:38;11.50;;;10.30;;
67352;SDS011;54238;52.278;21.056;2023-08-20T08:44:13;12.30;;;9.20;;
67352;SDS011;54238;52.278;21.056;2023-08-20T08:46:45;10.90;;;9.60;;
67352;SDS011;54238;52.278;21.056;2023-08-20T08:49:18;10.10;;;9.10;;
67352;SDS011;54238;52.278;21.056;2023-08-20T08:51:50;11.10;;;9.10;;
67352;SDS011;54238;52.278;21.056;2023-08-20T08:54:18;11.10;;;8.70;;
67352;SDS011;54238;52.278;21.056;2023-08-20T08:56:49;12.00;;;8.60;;
67352;SDS011;54238;52.278;21.056;2023-08-20T08:59:17;11.20;;;8.60;;
67352;SDS011;54238;52.278;21.056;2023-08-20T09:01:45;11.40;;;8.70;;
67352;SDS011;54238;52.278;21.056;2023-08-20T09:04:12;9.70;;;8.60;;
67352;SDS011;54238;52.278;21.056;2023-08-20T09:06:51;12.20;;;8.60;;
67352;SDS011;54238;52.278;21.056;2023-08-20T09:09:22;10.20;;;8.80;;
67352;SDS011;54238;52.278;21.056;2023-08-20T09:11:51;9.60;;;8.60;;
67352;SDS011;54238;52.278;21.056;2023-08-20T09:14:23;10.20;;;9.30;;
67352;SDS011;54238;52.278;21.056;2023-08-20T09:16:58;11.10;;;8.80;;
67352;SDS011;54238;52.278;21.056;2023-08-20T09:19:37;12.30;;;9.40;;
67352;SDS011;54238;52.278;21.056;2023-08-20T09:22:06;9.50;;;8.50;;
67352;SDS011;54238;52.278;21.056;2023-08-20T09:24:44;9.60;;;8.40;;
67352;SDS011;54238;52.278;21.056;2023-08-20T09:27:17;10.50;;;8.60;;
67352;SDS011;54238;52.278;21.056;2023-08-20T09:29:51;8.90;;;7.70;;
67352;SDS011;54238;52.278;21.056;2023-08-20T09:32:23;9.50;;;8.00;;
67352;SDS011;54238;52.278;21.056;2023-08-20T09:34:55;8.80;;;8.00;;
67352;SDS011;54238;52.278;21.056;2023-08-20T09:37:24;13.00;;;7.90;;
67352;SDS011;54238;52.278;21.056;2023-08-20T09:39:51;9.80;;;8.40;;
67352;SDS011;54238;52.278;21.056;2023-08-20T09:42:21;9.20;;;8.30;;
67352;SDS011;54238;52.278;21.056;2023-08-20T09:44:54;13.30;;;8.60;;
67352;SDS011;54238;52.278;21.056;2023-08-20T09:47:25;12.10;;;9.20;;
67352;SDS011;54238;52.278;21.056;2023-08-20T09:49:58;9.00;;;8.10;;
67352;SDS011;54238;52.278;21.056;2023-08-20T09:52:35;9.30;;;8.30;;
67352;SDS011;54238;52.278;21.056;2023-08-20T09:55:21;11.50;;;7.70;;
67352;SDS011;54238;52.278;21.056;2023-08-20T09:57:52;9.20;;;8.20;;
67352;SDS011;54238;52.278;21.056;2023-08-20T10:00:22;11.20;;;9.10;;
67352;SDS011;54238;52.278;21.056;2023-08-20T10:02:50;9.80;;;8.00;;
67352;SDS011;54238;52.278;21.056;2023-08-20T10:05:19;9.40;;;7.90;;
67352;SDS011;54238;52.278;21.056;2023-08-20T10:07:50;10.80;;;7.70;;
67352;SDS011;54238;52.278;21.056;2023-08-20T10:10:24;8.60;;;7.80;;
67352;SDS011;54238;52.278;21.056;2023-08-20T10:12:59;10.10;;;8.40;;
67352;SDS011;54238;52.278;21.056;2023-08-20T10:15:32;7.80;;;7.00;;
67352;SDS011;54238;52.278;21.056;2023-08-20T10:18:07;9.10;;;8.30;;
67352;SDS011;54238;52.278;21.056;2023-08-20T10:20:39;8.60;;;7.80;;
67352;SDS011;54238;52.278;21.056;2023-08-20T10:23:12;13.20;;;7.50;;
67352;SDS011;54238;52.278;21.056;2023-08-20T10:25:44;9.20;;;7.30;;
67352;SDS011;54238;52.278;21.056;2023-08-20T10:28:20;9.80;;;7.80;;
67352;SDS011;54238;52.278;21.056;2023-08-20T10:36:21;9.70;;;7.70;;
67352;SDS011;54238;52.278;21.056;2023-08-20T10:38:55;11.30;;;7.90;;
67352;SDS011;54238;52.278;21.056;2023-08-20T10:41:28;8.20;;;7.50;;
67352;SDS011;54238;52.278;21.056;2023-08-20T10:43:59;9.40;;;7.70;;
67352;SDS011;54238;52.278;21.056;2023-08-20T10:46:28;8.30;;;6.80;;
67352;SDS011;54238;52.278;21.056;2023-08-20T10:49:02;7.90;;;7.20;;
67352;SDS011;54238;52.278;21.056;2023-08-20T10:51:34;7.30;;;6.60;;
67352;SDS011;54238;52.278;21.056;2023-08-20T10:54:09;7.90;;;7.20;;
67352;SDS011;54238;52.278;21.056;2023-08-20T10:56:47;7.70;;;6.80;;
67352;SDS011;54238;52.278;21.056;2023-08-20T10:59:21;9.90;;;7.20;;
67352;SDS011;54238;52.278;21.056;2023-08-20T11:01:51;8.40;;;6.60;;
67352;SDS011;54238;52.278;21.056;2023-08-20T11:04:27;7.80;;;7.00;;
67352;SDS011;54238;52.278;21.056;2023-08-20T11:07:00;7.70;;;6.50;;
67352;SDS011;54238;52.278;21.056;2023-08-20T11:09:31;7.30;;;6.60;;
67352;SDS011;54238;52.278;21.056;2023-08-20T11:12:04;7.20;;;6.50;;
67352;SDS011;54238;52.278;21.056;2023-08-20T11:14:31;7.40;;;6.70;;
67352;SDS011;54238;52.278;21.056;2023-08-20T11:17:03;7.00;;;6.30;;
67352;SDS011;54238;52.278;21.056;2023-08-20T11:19:38;7.60;;;6.80;;
67352;SDS011;54238;52.278;21.056;2023-08-20T11:22:08;7.20;;;6.50;;
67352;SDS011;54238;52.278;21.056;2023-08-20T11:24:41;7.40;;;6.80;;
67352;SDS011;54238;52.278;21.056;2023-08-20T11:27:11;7.20;;;6.60;;
67352;SDS011;54238;52.278;21.056;2023-08-20T11:29:42;7.90;;;7.20;;
67352;SDS011;54238;52.278;21.056;2023-08-20T11:32:12;10.20;;;7.70;;
67352;SDS011;54238;52.278;21.056;2023-08-20T11:34:40;6.90;;;6.20;;
67352;SDS011;54238;52.278;21.056;2023-08-20T11:37:12;6.50;;;5.80;;
67352;SDS011;54238;52.278;21.056;2023-08-20T11:39:41;7.20;;;6.50;;
67352;SDS011;54238;52.278;21.056;2023-08-20T11:42:13;7.60;;;6.90;;
67352;SDS011;54238;52.278;21.056;2023-08-20T11:44:46;8.40;;;6.80;;
67352;SDS011;54238;52.278;21.056;2023-08-20T11:47:17;7.20;;;6.60;;
67352;SDS011;54238;52.278;21.056;2023-08-20T11:49:48;10.00;;;7.80;;
67352;SDS011;54238;52.278;21.056;2023-08-20T11:52:32;8.00;;;7.30;;
67352;SDS011;54238;52.278;21.056;2023-08-20T11:55:02;9.30;;;7.00;;
67352;SDS011;54238;52.278;21.056;2023-08-20T11:57:35;7.70;;;7.00;;
67352;SDS011;54238;52.278;21.056;2023-08-20T12:00:08;8.40;;;7.50;;
67352;SDS011;54238;52.278;21.056;2023-08-20T12:02:40;8.70;;;7.00;;
67352;SDS011;54238;52.278;21.056;2023-08-20T12:05:18;8.60;;;7.80;;
67352;SDS011;54238;52.278;21.056;2023-08-20T12:08:02;8.30;;;7.50;;
67352;SDS011;54238;52.278;21.056;2023-08-20T12:10:42;8.90;;;7.80;;
67352;SDS011;54238;52.278;21.056;2023-08-20T12:13:12;9.80;;;7.40;;
67352;SDS011;54238;52.278;21.056;2023-08-20T12:15:41;8.60;;;7.70;;
67352;SDS011;54238;52.278;21.056;2023-08-20T12:18:11;10.20;;;7.30;;
67352;SDS011;54238;52.278;21.056;2023-08-20T12:20:38;7.90;;;7.20;;
67352;SDS011;54238;52.278;21.056;2023-08-20T12:23:13;8.70;;;8.00;;
67352;SDS011;54238;52.278;21.056;2023-08-20T12:25:43;8.70;;;7.90;;
67352;SDS011;54238;52.278;21.056;2023-08-20T12:28:10;8.70;;;7.90;;
67352;SDS011;54238;52.278;21.056;2023-08-20T12:30:45;9.00;;;8.20;;
67352;SDS011;54238;52.278;21.056;2023-08-20T12:33:22;10.70;;;8.10;;
67352;SDS011;54238;52.278;21.056;2023-08-20T12:35:55;9.30;;;8.30;;
67352;SDS011;54238;52.278;21.056;2023-08-20T12:38:24;14.40;;;9.30;;
67352;SDS011;54238;52.278;21.056;2023-08-20T12:41:01;9.10;;;8.40;;
67352;SDS011;54238;52.278;21.056;2023-08-20T12:43:32;9.60;;;8.70;;
67352;SDS011;54238;52.278;21.056;2023-08-20T12:46:02;10.10;;;9.00;;
67352;SDS011;54238;52.278;21.056;2023-08-20T12:48:32;13.60;;;8.90;;
67352;SDS011;54238;52.278;21.056;2023-08-20T12:51:00;9.20;;;8.30;;
67352;SDS011;54238;52.278;21.056;2023-08-20T12:53:27;9.90;;;9.00;;
67352;SDS011;54238;52.278;21.056;2023-08-20T12:55:57;9.90;;;8.90;;
67352;SDS011;54238;52.278;21.056;2023-08-20T12:58:29;8.70;;;7.80;;
67352;SDS011;54238;52.278;21.056;2023-08-20T13:00:58;11.20;;;8.80;;
67352;SDS011;54238;52.278;21.056;2023-08-20T13:05:59;9.00;;;8.10;;
67352;SDS011;54238;52.278;21.056;2023-08-20T13:08:27;8.90;;;8.10;;
67352;SDS011;54238;52.278;21.056;2023-08-20T13:10:57;8.50;;;7.60;;
67352;SDS011;54238;52.278;21.056;2023-08-20T13:13:28;14.00;;;8.10;;
67352;SDS011;54238;52.278;21.056;2023-08-20T13:16:01;8.00;;;7.30;;
67352;SDS011;54238;52.278;21.056;2023-08-20T13:18:34;7.90;;;7.20;;
67352;SDS011;54238;52.278;21.056;2023-08-20T13:21:06;7.70;;;6.80;;
67352;SDS011;54238;52.278;21.056;2023-08-20T13:23:36;9.10;;;6.70;;
67352;SDS011;54238;52.278;21.056;2023-08-20T13:26:03;7.60;;;6.40;;
67352;SDS011;54238;52.278;21.056;2023-08-20T13:28:34;9.40;;;6.80;;
67352;SDS011;54238;52.278;21.056;2023-08-20T13:31:01;9.70;;;7.00;;
67352;SDS011;54238;52.278;21.056;2023-08-20T13:33:33;7.90;;;7.10;;
67352;SDS011;54238;52.278;21.056;2023-08-20T13:36:02;8.50;;;7.70;;
67352;SDS011;54238;52.278;21.056;2023-08-20T13:38:33;7.70;;;7.00;;
67352;SDS011;54238;52.278;21.056;2023-08-20T13:41:01;7.50;;;6.70;;
67352;SDS011;54238;52.278;21.056;2023-08-20T13:43:31;7.70;;;6.90;;
67352;SDS011;54238;52.278;21.056;2023-08-20T13:46:00;7.60;;;6.80;;
67352;SDS011;54238;52.278;21.056;2023-08-20T13:48:33;8.70;;;8.00;;
67352;SDS011;54238;52.278;21.056;2023-08-20T13:51:00;7.90;;;7.10;;
67352;SDS011;54238;52.278;21.056;2023-08-20T13:53:30;8.10;;;7.40;;
67352;SDS011;54238;52.278;21.056;2023-08-20T13:55:59;8.00;;;7.20;;
67352;SDS011;54238;52.278;21.056;2023-08-20T13:58:26;7.50;;;6.80;;
67352;SDS011;54238;52.278;21.056;2023-08-20T14:00:55;9.60;;;7.40;;
67352;SDS011;54238;52.278;21.056;2023-08-20T14:03:25;7.70;;;7.00;;
67352;SDS011;54238;52.278;21.056;2023-08-20T14:05:54;8.20;;;7.40;;
67352;SDS011;54238;52.278;21.056;2023-08-20T14:08:24;11.80;;;6.60;;
67352;SDS011;54238;52.278;21.056;2023-08-20T14:10:57;14.20;;;7.30;;
67352;SDS011;54238;52.278;21.056;2023-08-20T14:13:27;7.40;;;6.80;;
67352;SDS011;54238;52.278;21.056;2023-08-20T14:15:54;8.10;;;7.30;;
67352;SDS011;54238;52.278;21.056;2023-08-20T14:18:24;9.80;;;7.50;;
67352;SDS011;54238;52.278;21.056;2023-08-20T14:20:55;8.30;;;7.20;;
67352;SDS011;54238;52.278;21.056;2023-08-20T14:23:22;9.70;;;7.40;;
67352;SDS011;54238;52.278;21.056;2023-08-20T14:25:49;8.50;;;7.70;;
67352;SDS011;54238;52.278;21.056;2023-08-20T14:28:16;9.60;;;7.60;;
67352;SDS011;54238;52.278;21.056;2023-08-20T14:30:50;10.60;;;7.80;;
67352;SDS011;54238;52.278;21.056;2023-08-20T14:33:21;9.00;;;8.10;;
67352;SDS011;54238;52.278;21.056;2023-08-20T14:35:50;11.50;;;8.10;;
67352;SDS011;54238;52.278;21.056;2023-08-20T14:38:17;8.80;;;8.00;;
67352;SDS011;54238;52.278;21.056;2023-08-20T14:40:46;11.60;;;9.30;;
67352;SDS011;54238;52.278;21.056;2023-08-20T14:43:15;8.80;;;8.10;;
67352;SDS011;54238;52.278;21.056;2023-08-20T14:45:42;9.40;;;8.60;;
67352;SDS011;54238;52.278;21.056;2023-08-20T14:48:17;9.20;;;8.10;;
67352;SDS011;54238;52.278;21.056;2023-08-20T14:50:47;10.00;;;8.70;;
67352;SDS011;54238;52.278;21.056;2023-08-20T14:53:15;9.20;;;8.40;;
67352;SDS011;54238;52.278;21.056;2023-08-20T14:55:46;8.70;;;7.90;;
67352;SDS011;54238;52.278;21.056;2023-08-20T14:58:15;8.20;;;7.50;;
67352;SDS011;54238;52.278;21.056;2023-08-20T15:00:42;11.40;;;8.40;;